x

Portland 12 Nm Southeast Of Portland,me (44007) Wave Buoy

5:50 - Thu 28th Apr 2016 All times are EDT. -4 hours from GMT.

  • Sig Wave height 2.3ft
  • Swell Direction
  • Peak Period 10s
  • Average Period 4s
  • Wind
    13mph, 16mph gusts
  • Sea Temp 44°f
  • Aire Temp 43°f
  • Sea Pressure 1017.6mb
  • Portland 12 Nm Southeast Of Portland,me
  • Portland 12 Nm Southeast Of Portland,me

More Historic Weather Station data

Upgrade to MSW Pro to gain access to the past 30 days of data for over 8000 Wavebouys and Weather Stations around the globe.

Join Pro

Comparision Forecast

View Surf forecast
   
jue 04/28 5:50 2.5ft 10s 4s 13 16 mph 1017.6mb 44f 43f
4:50 2.5ft 8s 4s 16 18 mph 1017mb 45f 43f
3:50 2.5ft 9s 4s 13 16 mph 1017.1mb 45f 42f
2:50 2.5ft 10s 5s 18 20 mph 1017.3mb 44f 41f
1:50 2.5ft 8s 6s 16 18 mph 1017.6mb 44f 41f
12:50 2.5ft 8s 7s 13
mph
1017.8mb 45f 40f
11:50 2.5ft 8s 7s 9
mph
1018.2mb 45f 40f
10:50 2.5ft 8s 7s 4 7 mph 1018.3mb 45f 40f
9:50 2.5ft 10s 7s 2 4 mph 1018.4mb 44f 40f
8:50 2.5ft 9s 7s 2 4 mph 1018mb 44f 39f
7:50 2.5ft 10s 6s 4 9 mph 1017.2mb 43f 38f
6:50 2.5ft 10s 5s 7 9 mph 1016.6mb 43f 38f
5:50 2.5ft 10s 4s 9 11 mph 1015.8mb 43f 38f
4:50 2.5ft 10s 5s 18 20 mph 1014.4mb 43f 40f
3:50 2.5ft 11s 5s 11 16 mph 1013.8mb 43f 40f
2:50 2.5ft 11s 5s 11 13 mph 1013.2mb 44f 41f
1:50 3ft 8s 4s 13 18 mph 1012.6mb 44f 42f
12:50 3ft 9s 5s 18 20 mph 1012.5mb 45f 44f
mié 04/27 11:50 3ft 8s 5s 20 22 mph 1012mb 45f 44f
10:50 3.5ft 8s 6s 27 31 mph 1011.2mb 45f 46f
9:50 3.5ft 8s 6s 7 9 mph 1010.6mb 45f 45f
8:50 3.5ft 9s 5s 2 4 mph 1009.5mb 45f 45f
7:50 3.5ft 10s 5s 11 13 mph 1008.9mb 45f 45f
6:50 3ft 9s 5s 16 18 mph 1008.9mb 45f 45f
5:50 2.5ft 11s 5s 20 25 mph 1008.7mb 45f 46f
4:50 2.5ft 9s 5s 18 20 mph 1008.8mb 46f 45f
3:50 2.5ft 11s 5s 13 16 mph 1008.9mb 45f 50f
2:50 2.5ft 11s 6s 11 13 mph 1009.7mb 46f 49f
1:50 2.5ft 9s 7s 9 11 mph 1010.2mb 46f 46f
12:50 2.5ft 9s 8s 11
mph
1010.7mb 46f 42f
11:50 2.5ft 11s 7s 9 11 mph 1011.2mb 45f 42f
10:50 3ft 11s 8s 7
mph
1011.8mb 46f 42f
9:50 3ft 9s 8s 2
mph
1012.2mb 45f 42f
8:50 2.5ft 10s 8s 4
mph
1012.5mb 44f 40f
7:50 2ft 11s 7s 2 4 mph 1011.9mb 44f 38f
6:50 2ft 10s 7s 11 13 mph 1011.6mb 44f 37f
5:50 1.6ft 11s 7s 4
mph
1011.1mb 44f 38f
4:50 1.6ft 11s 6s 9
mph
1010.9mb 44f 37f
3:50 1.6ft 11s 5s 13 16 mph 1010.4mb 44f 37f
2:50 1.6ft 11s 5s 13 16 mph 1009.9mb 43f 38f
1:50 1.6ft 12s 5s 11 13 mph 1010mb 43f 38f
12:50 2ft 12s 5s 13 16 mph 1010.3mb 44f 38f
mar 04/26 11:50 2ft 12s 5s 16
mph
1010.3mb 44f 38f
10:50 2ft 11s 6s 13 16 mph 1010.3mb 44f 38f
9:50 2ft 12s 6s 11 13 mph 1010.1mb 44f 38f
8:50 2ft 11s 6s 11 13 mph 1010.1mb 44f 37f
7:50 1.6ft 13s 5s 9 11 mph 1010.2mb 44f 37f
6:50 1.6ft 10s 4s 4 7 mph 1009.8mb 44f 36f
5:50 2ft 11s 4s 9 13 mph 1010.1mb 44f 36f
4:50 2ft 11s 4s 13 16 mph 1009.2mb 44f 35f
3:50 2.5ft 11s 4s 13 18 mph 1008.8mb 44f 35f
2:50 2.5ft 11s 4s 16 20 mph 1009.2mb 44f 34f
1:50 2.5ft 5s 4s 16 18 mph 1009.8mb 44f 33f
12:50 2.5ft 4s 4s 13 16 mph 1010.9mb 44f 33f
11:50 2.5ft 4s 4s 13 16 mph 1010.7mb 45f 34f
10:50 2.5ft 4s 4s 18 20 mph 1011.5mb 45f 34f
9:50 2.5ft 10s 4s 18 20 mph 1012mb 45f 35f
8:50 2ft 10s 4s 20 22 mph 1011.9mb 45f 38f
7:50 1.6ft 9s 4s 16 18 mph 1012.8mb 45f 40f
6:50 1.6ft 10s 4s 16 20 mph 1013.1mb 44f 41f
5:50 1.3ft 11s 4s 13 18 mph 1013.2mb 44f 42f
4:50 1.6ft 10s 4s 7 13 mph 1013.9mb 44f 41f
3:50 1.6ft 11s 4s 11 20 mph 1014.5mb 44f 43f
2:50 2ft 11s 3s 16 20 mph 1013.8mb 44f 44f
1:50 1.6ft 11s 4s 13 16 mph 1014mb 45f 44f
12:50 2ft 11s 4s 11
mph
1014.5mb 45f 46f
lun 04/25 11:50 1.6ft 11s 4s 18 22 mph 1013.9mb 45f 47f
10:50 2ft 11s 5s 11 13 mph 1013.9mb 45f 48f
9:50 2.5ft 11s 5s 9 13 mph 1013.7mb 45f 47f
8:50 2.5ft 10s 5s 7 9 mph 1013.1mb 45f 48f
7:50 2.5ft 4s 4s 9
mph
1012.3mb 45f 47f
6:50 3ft 4s 4s 13 16 mph 1011.9mb 45f 47f
5:50 3ft 4s 4s 18 20 mph 1011.6mb 46f 48f
4:50 2.5ft 4s 4s 20 25 mph 1011.7mb 46f 48f
3:50 2.5ft 4s 3s 20 22 mph 1011.9mb 46f 47f
2:50 2ft 11s 3s 20 25 mph 1012.6mb 47f 47f
1:50 1.6ft 11s 3s 16 20 mph 1013.6mb 46f 47f
12:50 1.3ft 12s 5s 13 16 mph 1014.2mb 46f 46f
11:50 1.3ft 12s 5s 11 13 mph 1015.3mb 46f 48f
10:50 1.3ft 12s  -  11 13 mph 1016.3mb 46f 47f
9:50 1.3ft 10s 5s 7
mph
1017.2mb 45f 45f
8:50 1.3ft 11s 5s 4 7 mph 1017.8mb 45f 43f
7:50 1.3ft 11s 5s 4 7 mph 1018mb 45f 43f
6:50 1ft 11s 6s 9 11 mph 1017.2mb 44f 44f
5:50 1ft 11s 5s 9 11 mph 1017mb 45f 42f
4:50 1ft 11s 6s 9
mph
1016.7mb 45f 43f
3:50 1ft 11s 5s 7
mph
1016.4mb 45f 43f
2:50 1ft 11s 5s 4
mph
1016.7mb 45f 44f
1:50 1ft 11s 5s 7 9 mph 1017mb 45f 44f
12:50 1ft 12s 5s 7
mph
1017.2mb 45f 46f
dom 04/24 11:50 1.3ft 11s 5s 2 4 mph 1017.5mb 45f 45f